Adams, Kentucky
Current Conditions -  °F | °C
As of 9:15 AM on Saturday 01 Nov 2014 (Local Time) from KSJS Reporting Station
Drizzle Drizzle  
Wind Chill: 29°   Ceiling: 400
Heat Index: 37°   Visibility: 10mi
Dew Point: 36°   Wind: 10mph
Humidity: 97%   Direction: 340°NNW
Pressure: 30.02"   Gusts: NA
Location:  38.05°N, 82.71°W
Report Text: KSJS 011315Z AUTO 34009KT 10SM -DZ OVC004 03/02 A3002 RMK AO2 T00250021
Loading
Personal Weather Stations






























Interactive Weather Map
Tropical Storm Tracking
New forecast layout! Learn more

10-Day Weather Forecast

Advertisements
Track Severe Weather on mobile